sensor_id;sensor_type;location;lat;lon;timestamp;temperature;humidity
14000;DHT22;7075;53.574;10.054;2023-02-22T00:01:16;9.70;99.90
14000;DHT22;7075;53.574;10.054;2023-02-22T00:04:01;9.70;99.90
14000;DHT22;7075;53.574;10.054;2023-02-22T00:06:27;9.70;99.90
14000;DHT22;7075;53.574;10.054;2023-02-22T00:08:55;9.70;99.90
14000;DHT22;7075;53.574;10.054;2023-02-22T00:11:22;9.70;99.90
14000;DHT22;7075;53.574;10.054;2023-02-22T00:13:52;9.70;99.90
14000;DHT22;7075;53.574;10.054;2023-02-22T00:16:24;9.70;99.90
14000;DHT22;7075;53.574;10.054;2023-02-22T00:18:52;9.60;99.90
14000;DHT22;7075;53.574;10.054;2023-02-22T00:21:18;9.60;99.90
14000;DHT22;7075;53.574;10.054;2023-02-22T00:23:45;9.60;99.90
14000;DHT22;7075;53.574;10.054;2023-02-22T00:26:13;9.60;99.90
14000;DHT22;7075;53.574;10.054;2023-02-22T00:28:49;9.60;99.90
14000;DHT22;7075;53.574;10.054;2023-02-22T00:31:17;9.60;99.90
14000;DHT22;7075;53.574;10.054;2023-02-22T00:33:44;9.60;99.90
14000;DHT22;7075;53.574;10.054;2023-02-22T00:36:11;9.60;99.90
14000;DHT22;7075;53.574;10.054;2023-02-22T00:38:38;9.50;99.90
14000;DHT22;7075;53.574;10.054;2023-02-22T00:41:04;9.50;99.90
14000;DHT22;7075;53.574;10.054;2023-02-22T00:43:37;9.50;99.90
14000;DHT22;7075;53.574;10.054;2023-02-22T00:46:04;9.50;99.90
14000;DHT22;7075;53.574;10.054;2023-02-22T00:48:30;9.50;99.90
14000;DHT22;7075;53.574;10.054;2023-02-22T00:50:55;9.60;99.90
14000;DHT22;7075;53.574;10.054;2023-02-22T00:53:22;9.60;99.90
14000;DHT22;7075;53.574;10.054;2023-02-22T00:55:49;9.60;99.90
14000;DHT22;7075;53.574;10.054;2023-02-22T00:58:15;9.50;99.90
14000;DHT22;7075;53.574;10.054;2023-02-22T01:00:41;9.50;99.90
14000;DHT22;7075;53.574;10.054;2023-02-22T01:03:12;9.40;99.90
14000;DHT22;7075;53.574;10.054;2023-02-22T01:05:39;9.30;99.90
14000;DHT22;7075;53.574;10.054;2023-02-22T01:08:10;9.30;99.90
14000;DHT22;7075;53.574;10.054;2023-02-22T01:10:37;9.30;99.90
14000;DHT22;7075;53.574;10.054;2023-02-22T01:13:04;9.30;99.90
14000;DHT22;7075;53.574;10.054;2023-02-22T01:15:34;9.30;99.90
14000;DHT22;7075;53.574;10.054;2023-02-22T01:18:00;9.30;99.90
14000;DHT22;7075;53.574;10.054;2023-02-22T01:20:27;9.40;99.90
14000;DHT22;7075;53.574;10.054;2023-02-22T01:22:56;9.40;99.90
14000;DHT22;7075;53.574;10.054;2023-02-22T01:25:27;9.40;99.90
14000;DHT22;7075;53.574;10.054;2023-02-22T01:27:54;9.40;99.90
14000;DHT22;7075;53.574;10.054;2023-02-22T01:30:22;9.50;99.90
14000;DHT22;7075;53.574;10.054;2023-02-22T01:32:48;9.40;99.90
14000;DHT22;7075;53.574;10.054;2023-02-22T01:35:19;9.50;99.90
14000;DHT22;7075;53.574;10.054;2023-02-22T01:37:45;9.40;99.90
14000;DHT22;7075;53.574;10.054;2023-02-22T01:40:18;9.40;99.90
14000;DHT22;7075;53.574;10.054;2023-02-22T01:42:47;9.40;99.90
14000;DHT22;7075;53.574;10.054;2023-02-22T01:48:15;9.40;99.90
14000;DHT22;7075;53.574;10.054;2023-02-22T01:50:47;9.40;99.90
14000;DHT22;7075;53.574;10.054;2023-02-22T01:53:17;9.40;99.90
14000;DHT22;7075;53.574;10.054;2023-02-22T01:55:44;9.40;99.90
14000;DHT22;7075;53.574;10.054;2023-02-22T01:58:10;9.50;99.90
14000;DHT22;7075;53.574;10.054;2023-02-22T02:00:37;9.50;99.90
14000;DHT22;7075;53.574;10.054;2023-02-22T02:03:08;9.50;99.90
14000;DHT22;7075;53.574;10.054;2023-02-22T02:05:36;9.50;99.90
14000;DHT22;7075;53.574;10.054;2023-02-22T02:08:26;9.50;99.90
14000;DHT22;7075;53.574;10.054;2023-02-22T02:10:54;9.50;99.90
14000;DHT22;7075;53.574;10.054;2023-02-22T02:13:20;9.40;99.90
14000;DHT22;7075;53.574;10.054;2023-02-22T02:15:46;9.40;99.90
14000;DHT22;7075;53.574;10.054;2023-02-22T02:18:14;9.30;99.90
14000;DHT22;7075;53.574;10.054;2023-02-22T02:38:15;9.20;99.90
14000;DHT22;7075;53.574;10.054;2023-02-22T02:43:40;9.10;99.90
14000;DHT22;7075;53.574;10.054;2023-02-22T02:46:24;9.10;99.90
14000;DHT22;7075;53.574;10.054;2023-02-22T02:48:56;9.20;99.90
14000;DHT22;7075;53.574;10.054;2023-02-22T02:51:27;9.30;99.90
14000;DHT22;7075;53.574;10.054;2023-02-22T02:53:53;9.30;99.90
14000;DHT22;7075;53.574;10.054;2023-02-22T02:56:20;9.30;99.90
14000;DHT22;7075;53.574;10.054;2023-02-22T02:58:49;9.30;99.90
14000;DHT22;7075;53.574;10.054;2023-02-22T03:07:27;9.20;99.90
14000;DHT22;7075;53.574;10.054;2023-02-22T03:10:15;9.30;99.90
14000;DHT22;7075;53.574;10.054;2023-02-22T03:15:52;9.30;99.90
14000;DHT22;7075;53.574;10.054;2023-02-22T03:21:24;9.30;99.90
14000;DHT22;7075;53.574;10.054;2023-02-22T03:23:58;9.30;99.90
14000;DHT22;7075;53.574;10.054;2023-02-22T03:26:37;9.30;99.90
14000;DHT22;7075;53.574;10.054;2023-02-22T03:29:06;9.30;99.90
14000;DHT22;7075;53.574;10.054;2023-02-22T03:31:40;9.30;99.90
14000;DHT22;7075;53.574;10.054;2023-02-22T03:34:14;9.30;99.90
14000;DHT22;7075;53.574;10.054;2023-02-22T03:36:47;9.40;99.90
14000;DHT22;7075;53.574;10.054;2023-02-22T03:39:18;9.30;99.90
14000;DHT22;7075;53.574;10.054;2023-02-22T03:41:47;9.30;99.90
14000;DHT22;7075;53.574;10.054;2023-02-22T03:44:20;9.30;99.90
14000;DHT22;7075;53.574;10.054;2023-02-22T03:46:49;9.30;99.90
14000;DHT22;7075;53.574;10.054;2023-02-22T03:52:07;9.20;99.90
14000;DHT22;7075;53.574;10.054;2023-02-22T03:54:33;9.30;99.90
14000;DHT22;7075;53.574;10.054;2023-02-22T03:57:20;9.30;99.90
14000;DHT22;7075;53.574;10.054;2023-02-22T03:59:52;9.30;99.90
14000;DHT22;7075;53.574;10.054;2023-02-22T04:02:17;9.20;99.90
14000;DHT22;7075;53.574;10.054;2023-02-22T04:04:45;9.30;99.90
14000;DHT22;7075;53.574;10.054;2023-02-22T04:07:11;9.20;99.90
14000;DHT22;7075;53.574;10.054;2023-02-22T04:09:36;9.30;99.90
14000;DHT22;7075;53.574;10.054;2023-02-22T04:12:02;9.30;99.90
14000;DHT22;7075;53.574;10.054;2023-02-22T04:14:28;9.30;99.90
14000;DHT22;7075;53.574;10.054;2023-02-22T04:16:54;9.30;99.90
14000;DHT22;7075;53.574;10.054;2023-02-22T04:19:20;9.30;99.90
14000;DHT22;7075;53.574;10.054;2023-02-22T04:21:46;9.30;99.90
14000;DHT22;7075;53.574;10.054;2023-02-22T04:24:12;9.30;99.90
14000;DHT22;7075;53.574;10.054;2023-02-22T04:26:38;9.30;99.90
14000;DHT22;7075;53.574;10.054;2023-02-22T04:29:04;9.30;99.90
14000;DHT22;7075;53.574;10.054;2023-02-22T04:31:30;9.30;99.90
14000;DHT22;7075;53.574;10.054;2023-02-22T04:33:55;9.30;99.90
14000;DHT22;7075;53.574;10.054;2023-02-22T04:36:21;9.30;99.90
14000;DHT22;7075;53.574;10.054;2023-02-22T04:38:46;9.40;99.90
14000;DHT22;7075;53.574;10.054;2023-02-22T04:41:13;9.30;99.90
14000;DHT22;7075;53.574;10.054;2023-02-22T04:43:38;9.30;99.90
14000;DHT22;7075;53.574;10.054;2023-02-22T04:46:04;9.30;99.90
14000;DHT22;7075;53.574;10.054;2023-02-22T04:48:30;9.40;99.90
14000;DHT22;7075;53.574;10.054;2023-02-22T04:50:55;9.30;99.90
14000;DHT22;7075;53.574;10.054;2023-02-22T04:53:21;9.30;99.90
14000;DHT22;7075;53.574;10.054;2023-02-22T04:55:46;9.30;99.90
14000;DHT22;7075;53.574;10.054;2023-02-22T04:58:12;9.30;99.90
14000;DHT22;7075;53.574;10.054;2023-02-22T05:00:38;9.30;99.90
14000;DHT22;7075;53.574;10.054;2023-02-22T05:03:03;9.30;99.90
14000;DHT22;7075;53.574;10.054;2023-02-22T05:05:29;9.30;99.90
14000;DHT22;7075;53.574;10.054;2023-02-22T05:07:54;9.30;99.90
14000;DHT22;7075;53.574;10.054;2023-02-22T05:10:20;9.30;99.90
14000;DHT22;7075;53.574;10.054;2023-02-22T05:12:46;9.30;99.90
14000;DHT22;7075;53.574;10.054;2023-02-22T05:15:16;9.30;99.90
14000;DHT22;7075;53.574;10.054;2023-02-22T05:17:42;9.30;99.90
14000;DHT22;7075;53.574;10.054;2023-02-22T05:20:16;9.40;99.90
14000;DHT22;7075;53.574;10.054;2023-02-22T05:22:44;9.40;99.90
14000;DHT22;7075;53.574;10.054;2023-02-22T05:25:10;9.40;99.90
14000;DHT22;7075;53.574;10.054;2023-02-22T05:27:35;9.30;99.90
14000;DHT22;7075;53.574;10.054;2023-02-22T05:30:01;9.30;99.90
14000;DHT22;7075;53.574;10.054;2023-02-22T05:32:27;9.40;99.90
14000;DHT22;7075;53.574;10.054;2023-02-22T05:34:52;9.40;99.90
14000;DHT22;7075;53.574;10.054;2023-02-22T05:37:18;9.30;99.90
14000;DHT22;7075;53.574;10.054;2023-02-22T05:39:43;9.40;99.90
14000;DHT22;7075;53.574;10.054;2023-02-22T05:42:10;9.40;99.90
14000;DHT22;7075;53.574;10.054;2023-02-22T05:44:36;9.40;99.90
14000;DHT22;7075;53.574;10.054;2023-02-22T05:47:02;9.40;99.90
14000;DHT22;7075;53.574;10.054;2023-02-22T05:49:27;9.40;99.90
14000;DHT22;7075;53.574;10.054;2023-02-22T05:51:53;9.40;99.90
14000;DHT22;7075;53.574;10.054;2023-02-22T05:54:23;9.40;99.90
14000;DHT22;7075;53.574;10.054;2023-02-22T05:56:49;9.40;99.90
14000;DHT22;7075;53.574;10.054;2023-02-22T05:59:14;9.30;99.90
14000;DHT22;7075;53.574;10.054;2023-02-22T06:01:40;9.40;99.90
14000;DHT22;7075;53.574;10.054;2023-02-22T06:04:05;9.40;99.90
14000;DHT22;7075;53.574;10.054;2023-02-22T06:06:31;9.40;99.90
14000;DHT22;7075;53.574;10.054;2023-02-22T06:08:56;9.40;99.90
14000;DHT22;7075;53.574;10.054;2023-02-22T06:11:22;9.40;99.90
14000;DHT22;7075;53.574;10.054;2023-02-22T06:13:51;9.40;99.90
14000;DHT22;7075;53.574;10.054;2023-02-22T06:16:18;9.40;99.90
14000;DHT22;7075;53.574;10.054;2023-02-22T06:18:45;9.40;99.90
14000;DHT22;7075;53.574;10.054;2023-02-22T06:21:11;9.40;99.90
14000;DHT22;7075;53.574;10.054;2023-02-22T06:23:37;9.40;99.90
14000;DHT22;7075;53.574;10.054;2023-02-22T06:26:03;9.40;99.90
14000;DHT22;7075;53.574;10.054;2023-02-22T06:28:28;9.30;99.90
14000;DHT22;7075;53.574;10.054;2023-02-22T06:30:54;9.40;99.90
14000;DHT22;7075;53.574;10.054;2023-02-22T06:33:19;9.40;99.90
14000;DHT22;7075;53.574;10.054;2023-02-22T06:35:45;9.40;99.90
14000;DHT22;7075;53.574;10.054;2023-02-22T06:38:11;9.40;99.90
14000;DHT22;7075;53.574;10.054;2023-02-22T06:40:36;9.40;99.90
14000;DHT22;7075;53.574;10.054;2023-02-22T06:43:02;9.30;99.90
14000;DHT22;7075;53.574;10.054;2023-02-22T06:45:27;9.40;99.90
14000;DHT22;7075;53.574;10.054;2023-02-22T06:47:53;9.40;99.90
14000;DHT22;7075;53.574;10.054;2023-02-22T06:50:26;9.40;99.90
14000;DHT22;7075;53.574;10.054;2023-02-22T06:52:53;9.40;99.90
14000;DHT22;7075;53.574;10.054;2023-02-22T06:55:21;9.30;99.90
14000;DHT22;7075;53.574;10.054;2023-02-22T06:57:47;9.30;99.90
14000;DHT22;7075;53.574;10.054;2023-02-22T07:00:16;9.30;99.90
14000;DHT22;7075;53.574;10.054;2023-02-22T07:02:42;9.30;99.90
14000;DHT22;7075;53.574;10.054;2023-02-22T07:05:09;9.30;99.90
14000;DHT22;7075;53.574;10.054;2023-02-22T07:07:35;9.30;99.90
14000;DHT22;7075;53.574;10.054;2023-02-22T07:10:04;9.30;99.90
14000;DHT22;7075;53.574;10.054;2023-02-22T07:12:29;9.30;99.90
14000;DHT22;7075;53.574;10.054;2023-02-22T07:14:55;9.30;99.90
14000;DHT22;7075;53.574;10.054;2023-02-22T07:17:20;9.40;99.90
14000;DHT22;7075;53.574;10.054;2023-02-22T07:19:46;9.30;99.90
14000;DHT22;7075;53.574;10.054;2023-02-22T07:22:11;9.40;99.90
14000;DHT22;7075;53.574;10.054;2023-02-22T07:24:37;9.40;99.90
14000;DHT22;7075;53.574;10.054;2023-02-22T07:27:05;9.40;99.90
14000;DHT22;7075;53.574;10.054;2023-02-22T07:29:30;9.40;99.90
14000;DHT22;7075;53.574;10.054;2023-02-22T07:31:56;9.40;99.90
14000;DHT22;7075;53.574;10.054;2023-02-22T07:34:22;9.40;99.90
14000;DHT22;7075;53.574;10.054;2023-02-22T07:36:48;9.40;99.90
14000;DHT22;7075;53.574;10.054;2023-02-22T07:39:13;9.40;99.90
14000;DHT22;7075;53.574;10.054;2023-02-22T07:41:39;9.40;99.90
14000;DHT22;7075;53.574;10.054;2023-02-22T07:44:05;9.40;99.90
14000;DHT22;7075;53.574;10.054;2023-02-22T07:46:30;9.40;99.90
14000;DHT22;7075;53.574;10.054;2023-02-22T07:48:57;9.40;99.90
14000;DHT22;7075;53.574;10.054;2023-02-22T07:51:23;9.40;99.90
14000;DHT22;7075;53.574;10.054;2023-02-22T07:53:49;9.40;99.90
14000;DHT22;7075;53.574;10.054;2023-02-22T07:56:14;9.40;99.90
14000;DHT22;7075;53.574;10.054;2023-02-22T07:58:42;9.40;99.90
14000;DHT22;7075;53.574;10.054;2023-02-22T08:01:07;9.40;99.90
14000;DHT22;7075;53.574;10.054;2023-02-22T08:03:34;9.50;99.90
14000;DHT22;7075;53.574;10.054;2023-02-22T08:06:01;9.50;99.90
14000;DHT22;7075;53.574;10.054;2023-02-22T08:08:27;9.50;99.90
14000;DHT22;7075;53.574;10.054;2023-02-22T08:10:54;9.50;99.90
14000;DHT22;7075;53.574;10.054;2023-02-22T08:13:19;9.60;99.90
14000;DHT22;7075;53.574;10.054;2023-02-22T08:15:46;9.50;99.90
14000;DHT22;7075;53.574;10.054;2023-02-22T08:18:14;9.60;99.90
14000;DHT22;7075;53.574;10.054;2023-02-22T08:20:42;9.60;99.90
14000;DHT22;7075;53.574;10.054;2023-02-22T08:23:09;9.60;99.90
14000;DHT22;7075;53.574;10.054;2023-02-22T08:25:35;9.60;99.90
14000;DHT22;7075;53.574;10.054;2023-02-22T08:28:06;9.50;99.90
14000;DHT22;7075;53.574;10.054;2023-02-22T08:30:33;9.60;99.90
14000;DHT22;7075;53.574;10.054;2023-02-22T08:33:00;9.60;99.90
14000;DHT22;7075;53.574;10.054;2023-02-22T08:35:35;9.70;99.90
14000;DHT22;7075;53.574;10.054;2023-02-22T08:38:04;9.70;99.90
14000;DHT22;7075;53.574;10.054;2023-02-22T08:40:33;9.60;99.90
14000;DHT22;7075;53.574;10.054;2023-02-22T08:42:58;9.70;99.90
14000;DHT22;7075;53.574;10.054;2023-02-22T08:45:26;9.70;99.90
14000;DHT22;7075;53.574;10.054;2023-02-22T08:47:52;9.70;99.90
14000;DHT22;7075;53.574;10.054;2023-02-22T08:50:28;9.70;99.90
14000;DHT22;7075;53.574;10.054;2023-02-22T08:52:56;9.70;99.90
14000;DHT22;7075;53.574;10.054;2023-02-22T08:55:25;9.70;99.90
14000;DHT22;7075;53.574;10.054;2023-02-22T08:57:51;9.70;99.90
14000;DHT22;7075;53.574;10.054;2023-02-22T09:00:18;9.70;99.90
14000;DHT22;7075;53.574;10.054;2023-02-22T09:02:44;9.70;99.90
14000;DHT22;7075;53.574;10.054;2023-02-22T09:05:10;9.80;99.90
14000;DHT22;7075;53.574;10.054;2023-02-22T09:07:37;9.80;99.90
14000;DHT22;7075;53.574;10.054;2023-02-22T09:10:06;9.80;99.90
14000;DHT22;7075;53.574;10.054;2023-02-22T09:12:31;9.80;99.90
14000;DHT22;7075;53.574;10.054;2023-02-22T09:14:57;9.90;99.90
14000;DHT22;7075;53.574;10.054;2023-02-22T09:17:23;9.80;99.90
14000;DHT22;7075;53.574;10.054;2023-02-22T09:19:48;9.80;99.90
14000;DHT22;7075;53.574;10.054;2023-02-22T09:22:14;9.80;99.90
14000;DHT22;7075;53.574;10.054;2023-02-22T09:24:39;9.80;99.90
14000;DHT22;7075;53.574;10.054;2023-02-22T09:27:07;9.70;99.90
14000;DHT22;7075;53.574;10.054;2023-02-22T09:29:34;9.80;99.90
14000;DHT22;7075;53.574;10.054;2023-02-22T09:32:00;9.70;99.90
14000;DHT22;7075;53.574;10.054;2023-02-22T09:34:25;9.60;99.90
14000;DHT22;7075;53.574;10.054;2023-02-22T09:36:55;9.60;99.90
14000;DHT22;7075;53.574;10.054;2023-02-22T09:39:21;9.60;99.90
14000;DHT22;7075;53.574;10.054;2023-02-22T09:44:59;9.70;99.90
14000;DHT22;7075;53.574;10.054;2023-02-22T09:47:31;9.80;99.90
14000;DHT22;7075;53.574;10.054;2023-02-22T09:50:04;9.70;99.90
14000;DHT22;7075;53.574;10.054;2023-02-22T09:53:02;9.70;99.90
14000;DHT22;7075;53.574;10.054;2023-02-22T09:55:42;9.70;99.90
14000;DHT22;7075;53.574;10.054;2023-02-22T10:01:08;9.80;99.90
14000;DHT22;7075;53.574;10.054;2023-02-22T10:04:09;9.80;99.90
14000;DHT22;7075;53.574;10.054;2023-02-22T10:06:38;9.80;99.90
14000;DHT22;7075;53.574;10.054;2023-02-22T10:09:08;9.80;99.90
14000;DHT22;7075;53.574;10.054;2023-02-22T10:11:51;9.80;99.90
14000;DHT22;7075;53.574;10.054;2023-02-22T10:17:07;9.90;99.90
14000;DHT22;7075;53.574;10.054;2023-02-22T10:19:38;9.80;99.90
14000;DHT22;7075;53.574;10.054;2023-02-22T10:24:59;9.90;99.90
14000;DHT22;7075;53.574;10.054;2023-02-22T10:27:41;9.80;99.90
14000;DHT22;7075;53.574;10.054;2023-02-22T10:32:43;10.00;99.90
14000;DHT22;7075;53.574;10.054;2023-02-22T10:35:21;10.00;99.90
14000;DHT22;7075;53.574;10.054;2023-02-22T10:37:49;10.00;99.90
14000;DHT22;7075;53.574;10.054;2023-02-22T10:40:20;10.10;99.90
14000;DHT22;7075;53.574;10.054;2023-02-22T10:42:48;10.20;99.90
14000;DHT22;7075;53.574;10.054;2023-02-22T10:45:24;10.20;99.90
14000;DHT22;7075;53.574;10.054;2023-02-22T10:47:53;10.20;99.90
14000;DHT22;7075;53.574;10.054;2023-02-22T10:50:20;10.30;99.90
14000;DHT22;7075;53.574;10.054;2023-02-22T10:52:46;10.40;99.90
14000;DHT22;7075;53.574;10.054;2023-02-22T10:55:14;10.60;99.90
14000;DHT22;7075;53.574;10.054;2023-02-22T10:57:41;10.80;99.90
14000;DHT22;7075;53.574;10.054;2023-02-22T11:03:19;11.30;99.90
14000;DHT22;7075;53.574;10.054;2023-02-22T11:05:45;11.70;99.90
14000;DHT22;7075;53.574;10.054;2023-02-22T11:10:41;12.00;99.90
14000;DHT22;7075;53.574;10.054;2023-02-22T11:16:40;12.40;99.90
14000;DHT22;7075;53.574;10.054;2023-02-22T11:18:47;12.50;99.90
14000;DHT22;7075;53.574;10.054;2023-02-22T11:21:20;12.40;99.90
14000;DHT22;7075;53.574;10.054;2023-02-22T11:23:47;12.60;99.90
14000;DHT22;7075;53.574;10.054;2023-02-22T11:26:17;12.70;99.90
14000;DHT22;7075;53.574;10.054;2023-02-22T11:28:50;12.80;99.90
14000;DHT22;7075;53.574;10.054;2023-02-22T11:31:25;13.00;99.90
14000;DHT22;7075;53.574;10.054;2023-02-22T11:34:00;13.30;99.90
14000;DHT22;7075;53.574;10.054;2023-02-22T11:36:38;13.50;99.90
14000;DHT22;7075;53.574;10.054;2023-02-22T11:39:31;13.60;99.90
14000;DHT22;7075;53.574;10.054;2023-02-22T11:42:26;14.00;99.90
14000;DHT22;7075;53.574;10.054;2023-02-22T11:47:44;14.20;99.90
14000;DHT22;7075;53.574;10.054;2023-02-22T11:51:02;14.20;99.90
14000;DHT22;7075;53.574;10.054;2023-02-22T11:53:25;14.20;99.90
14000;DHT22;7075;53.574;10.054;2023-02-22T11:59:19;13.90;99.90
14000;DHT22;7075;53.574;10.054;2023-02-22T12:01:59;13.90;99.90
14000;DHT22;7075;53.574;10.054;2023-02-22T12:05:09;13.70;99.90
14000;DHT22;7075;53.574;10.054;2023-02-22T12:07:43;13.50;99.90
14000;DHT22;7075;53.574;10.054;2023-02-22T12:13:06;13.20;99.90
14000;DHT22;7075;53.574;10.054;2023-02-22T12:15:44;13.00;99.90
14000;DHT22;7075;53.574;10.054;2023-02-22T12:21:07;12.80;99.90
14000;DHT22;7075;53.574;10.054;2023-02-22T12:23:53;12.70;99.90
14000;DHT22;7075;53.574;10.054;2023-02-22T12:26:31;12.70;99.90
14000;DHT22;7075;53.574;10.054;2023-02-22T12:31:49;13.00;99.90
14000;DHT22;7075;53.574;10.054;2023-02-22T12:34:37;13.10;99.90
14000;DHT22;7075;53.574;10.054;2023-02-22T12:51:25;13.50;99.90
14000;DHT22;7075;53.574;10.054;2023-02-22T12:59:52;13.50;99.90
14000;DHT22;7075;53.574;10.054;2023-02-22T13:02:39;13.40;99.90
14000;DHT22;7075;53.574;10.054;2023-02-22T13:05:17;13.30;99.90
14000;DHT22;7075;53.574;10.054;2023-02-22T13:08:33;13.20;99.90
14000;DHT22;7075;53.574;10.054;2023-02-22T13:11:13;13.20;99.90
14000;DHT22;7075;53.574;10.054;2023-02-22T13:14:05;13.00;99.90
14000;DHT22;7075;53.574;10.054;2023-02-22T13:16:57;12.90;99.90
14000;DHT22;7075;53.574;10.054;2023-02-22T13:22:15;13.30;99.90
14000;DHT22;7075;53.574;10.054;2023-02-22T13:24:53;13.30;99.90
14000;DHT22;7075;53.574;10.054;2023-02-22T13:29:59;13.50;99.90
14000;DHT22;7075;53.574;10.054;2023-02-22T13:41:08;13.60;99.90
14000;DHT22;7075;53.574;10.054;2023-02-22T13:43:52;13.60;99.90
14000;DHT22;7075;53.574;10.054;2023-02-22T13:49:28;13.40;99.90
14000;DHT22;7075;53.574;10.054;2023-02-22T13:52:05;13.30;99.90
14000;DHT22;7075;53.574;10.054;2023-02-22T13:54:55;13.30;99.90
14000;DHT22;7075;53.574;10.054;2023-02-22T13:57:31;13.30;99.90
14000;DHT22;7075;53.574;10.054;2023-02-22T14:03:05;13.20;99.90
14000;DHT22;7075;53.574;10.054;2023-02-22T14:13:14;13.20;99.90
14000;DHT22;7075;53.574;10.054;2023-02-22T14:18:34;13.10;99.90
14000;DHT22;7075;53.574;10.054;2023-02-22T14:21:07;13.10;99.90
14000;DHT22;7075;53.574;10.054;2023-02-22T14:23:34;13.10;99.90
14000;DHT22;7075;53.574;10.054;2023-02-22T14:28:51;13.00;99.90
14000;DHT22;7075;53.574;10.054;2023-02-22T14:31:23;13.00;99.90
14000;DHT22;7075;53.574;10.054;2023-02-22T14:34:03;13.10;99.90
14000;DHT22;7075;53.574;10.054;2023-02-22T14:39:29;13.20;99.90
14000;DHT22;7075;53.574;10.054;2023-02-22T14:42:05;13.10;99.90
14000;DHT22;7075;53.574;10.054;2023-02-22T14:44:59;13.00;99.90
14000;DHT22;7075;53.574;10.054;2023-02-22T14:50:40;13.10;99.90
14000;DHT22;7075;53.574;10.054;2023-02-22T14:56:15;13.20;99.90
14000;DHT22;7075;53.574;10.054;2023-02-22T14:58:56;13.20;99.90
14000;DHT22;7075;53.574;10.054;2023-02-22T15:01:28;13.10;99.90
14000;DHT22;7075;53.574;10.054;2023-02-22T15:03:56;13.10;99.90
14000;DHT22;7075;53.574;10.054;2023-02-22T15:06:27;13.20;99.90
14000;DHT22;7075;53.574;10.054;2023-02-22T15:09:20;13.20;99.90
14000;DHT22;7075;53.574;10.054;2023-02-22T15:14:28;13.10;99.90
14000;DHT22;7075;53.574;10.054;2023-02-22T15:17:00;13.10;99.90
14000;DHT22;7075;53.574;10.054;2023-02-22T15:19:30;13.10;99.90
14000;DHT22;7075;53.574;10.054;2023-02-22T15:21:58;13.00;99.90
14000;DHT22;7075;53.574;10.054;2023-02-22T15:24:35;12.90;99.90
14000;DHT22;7075;53.574;10.054;2023-02-22T15:27:09;12.90;99.90
14000;DHT22;7075;53.574;10.054;2023-02-22T15:29:39;12.90;99.90
14000;DHT22;7075;53.574;10.054;2023-02-22T15:32:28;12.90;99.90
14000;DHT22;7075;53.574;10.054;2023-02-22T15:35:04;12.90;99.90
14000;DHT22;7075;53.574;10.054;2023-02-22T15:37:30;12.80;99.90
14000;DHT22;7075;53.574;10.054;2023-02-22T15:40:12;12.80;99.90
14000;DHT22;7075;53.574;10.054;2023-02-22T15:42:57;12.70;99.90
14000;DHT22;7075;53.574;10.054;2023-02-22T15:45:23;12.70;99.90
14000;DHT22;7075;53.574;10.054;2023-02-22T15:47:51;12.70;99.90
14000;DHT22;7075;53.574;10.054;2023-02-22T15:50:33;12.70;99.90
14000;DHT22;7075;53.574;10.054;2023-02-22T15:53:16;12.70;99.90
14000;DHT22;7075;53.574;10.054;2023-02-22T15:55:54;12.70;99.90
14000;DHT22;7075;53.574;10.054;2023-02-22T15:58:22;12.70;99.90
14000;DHT22;7075;53.574;10.054;2023-02-22T16:01:00;12.60;99.90
14000;DHT22;7075;53.574;10.054;2023-02-22T16:03:34;12.70;99.90
14000;DHT22;7075;53.574;10.054;2023-02-22T16:06:08;12.70;99.90
14000;DHT22;7075;53.574;10.054;2023-02-22T16:08:43;12.70;99.90
14000;DHT22;7075;53.574;10.054;2023-02-22T16:13:51;12.70;99.90
14000;DHT22;7075;53.574;10.054;2023-02-22T16:18:46;12.60;99.90
14000;DHT22;7075;53.574;10.054;2023-02-22T16:21:13;12.60;99.90
14000;DHT22;7075;53.574;10.054;2023-02-22T16:23:48;12.60;99.90
14000;DHT22;7075;53.574;10.054;2023-02-22T16:26:21;12.60;99.90
14000;DHT22;7075;53.574;10.054;2023-02-22T16:31:20;12.60;99.90
14000;DHT22;7075;53.574;10.054;2023-02-22T16:33:47;12.60;99.90
14000;DHT22;7075;53.574;10.054;2023-02-22T16:36:13;12.50;99.90
14000;DHT22;7075;53.574;10.054;2023-02-22T16:38:39;12.50;99.90
14000;DHT22;7075;53.574;10.054;2023-02-22T16:41:07;12.50;99.90
14000;DHT22;7075;53.574;10.054;2023-02-22T16:43:34;12.40;99.90
14000;DHT22;7075;53.574;10.054;2023-02-22T16:46:01;12.40;99.90
14000;DHT22;7075;53.574;10.054;2023-02-22T16:48:29;12.30;99.90
14000;DHT22;7075;53.574;10.054;2023-02-22T16:51:00;12.30;99.90
14000;DHT22;7075;53.574;10.054;2023-02-22T16:53:29;12.30;99.90
14000;DHT22;7075;53.574;10.054;2023-02-22T16:56:01;12.30;99.90
14000;DHT22;7075;53.574;10.054;2023-02-22T16:58:27;12.30;99.90
14000;DHT22;7075;53.574;10.054;2023-02-22T17:00:56;12.30;99.90
14000;DHT22;7075;53.574;10.054;2023-02-22T17:03:23;12.20;99.90
14000;DHT22;7075;53.574;10.054;2023-02-22T17:05:50;12.20;99.90
14000;DHT22;7075;53.574;10.054;2023-02-22T17:08:16;12.20;99.90
14000;DHT22;7075;53.574;10.054;2023-02-22T17:10:42;12.20;99.90
14000;DHT22;7075;53.574;10.054;2023-02-22T17:13:10;12.20;99.90
14000;DHT22;7075;53.574;10.054;2023-02-22T17:15:36;12.20;99.90
14000;DHT22;7075;53.574;10.054;2023-02-22T17:18:11;12.20;99.90
14000;DHT22;7075;53.574;10.054;2023-02-22T17:20:50;12.10;99.90
14000;DHT22;7075;53.574;10.054;2023-02-22T17:23:16;12.20;99.90
14000;DHT22;7075;53.574;10.054;2023-02-22T17:25:51;12.10;99.90
14000;DHT22;7075;53.574;10.054;2023-02-22T17:28:20;12.10;99.90
14000;DHT22;7075;53.574;10.054;2023-02-22T17:30:48;12.20;99.90
14000;DHT22;7075;53.574;10.054;2023-02-22T17:33:18;12.20;99.90
14000;DHT22;7075;53.574;10.054;2023-02-22T17:35:44;12.20;99.90
14000;DHT22;7075;53.574;10.054;2023-02-22T17:38:12;12.20;99.90
14000;DHT22;7075;53.574;10.054;2023-02-22T17:40:38;12.20;99.90
14000;DHT22;7075;53.574;10.054;2023-02-22T17:43:05;12.10;99.90
14000;DHT22;7075;53.574;10.054;2023-02-22T17:45:34;12.10;99.90
14000;DHT22;7075;53.574;10.054;2023-02-22T17:48:01;12.10;99.90
14000;DHT22;7075;53.574;10.054;2023-02-22T17:50:27;12.00;99.90
14000;DHT22;7075;53.574;10.054;2023-02-22T17:52:56;12.00;99.90
14000;DHT22;7075;53.574;10.054;2023-02-22T17:55:25;12.00;99.90
14000;DHT22;7075;53.574;10.054;2023-02-22T17:57:53;11.90;99.90
14000;DHT22;7075;53.574;10.054;2023-02-22T18:00:24;11.90;99.90
14000;DHT22;7075;53.574;10.054;2023-02-22T18:02:59;11.90;99.90
14000;DHT22;7075;53.574;10.054;2023-02-22T18:05:25;11.80;99.90
14000;DHT22;7075;53.574;10.054;2023-02-22T18:07:51;11.80;99.90
14000;DHT22;7075;53.574;10.054;2023-02-22T18:10:17;11.80;99.90
14000;DHT22;7075;53.574;10.054;2023-02-22T18:12:46;11.80;99.90
14000;DHT22;7075;53.574;10.054;2023-02-22T18:15:14;11.80;99.90
14000;DHT22;7075;53.574;10.054;2023-02-22T18:17:45;11.80;99.90
14000;DHT22;7075;53.574;10.054;2023-02-22T18:20:12;11.80;99.90
14000;DHT22;7075;53.574;10.054;2023-02-22T18:22:40;11.80;99.90
14000;DHT22;7075;53.574;10.054;2023-02-22T18:25:12;11.80;99.90
14000;DHT22;7075;53.574;10.054;2023-02-22T18:27:39;11.70;99.90